Etusivu
METAR-TAF:

METAR-TAF

Lentoasemat :

Buffalo Narrows, Manitoba, Kanada

Leveyspiiri: 55-50N, Pituuspiiri: 108-27W, korkeus merenpinnasta: 434 m

Tämänhetkinen sää

Tämä raportti tehtiin 1 tunti ja 4 minuuttia sitten, kello 03.00 UTC
Tuuli 11 kn pohjoisesta
Lämpötila 2°C
Kosteus 47%
Ilmanpaine 1024 hPa
Näkyvyys: 24.1 km
Muutamia pilviä 7000 ft:n korkeudessa
Muutamia pilviä 25000 ft:n korkeudessa

METAR: CYVT 210300Z 36011KT 15SM FEW070 FEW250 02/M08 A3025 RMK AC1CI1 AC TR CI TR SLP270

Aika: 23:04 (04:04 UTC)

Sääennuste

Tämä raportti tehtiin 3 tuntia ja 26 minuuttia sitten, kello 00.38 UTC
Ennuste voimassa 21. päivästä klo 01 UTC - 21. päivään klo 04 UTC
Tuuli 6 kn pohjoisesta/koillisesta
Näkyvyys: 10 km
Muutamia pilviä 25000 ft:n korkeudessa
Tulossa
21. päivästä klo 02 UTC - 21. päivään klo 04 UTC
Tuuli 8 kn pohjoisen/luoteesta

TAF: CYVT 210038Z 2101/2104 02006KT P6SM FEW250 BECMG 2102/2104 33008KT RMK NXT FCST WILL BE ISSUED AT 211345Z

Säähavainnot ja -ennusteet yli 4000 lentoasemalta (METAR- ja TAF-raportit).

Käytössä olevat sääasemat on merkitty karttaan keltaisilla ja punaisilla pisteillä.

Aseta hiiri pisteen päälle nähdäksesi sääaseman nimen.

Klikkaa sitten nähdäksesi säähavainnot ja -ennusteet.

Kartan vaihtaminen: klikkaa mustalla rastilla varustettuja vihreitä pisteitä, niin voit zoomata sisään; viivalla varustettua vihreää pistettä, niin voit zoomata ulos tai vihreitä nuolia, niin pääset viereisille kartoille.


METAR-TAF: